LOWS

Salzburg Airport

Salzburg, Austria
TAF LOWS 210515Z 2106/2206 15005KT CAVOK TX28/2113Z TN12/2204Z BECMG 2107/2109 34007KT 9999 FEW060 SCT120 TEMPO 2111/2119 29013G25KT FEW050CB BKN300 PROB40 TEMPO 2114/2119 29020G35KT 4000 TSRA SCT030CB BKN040 TEMPO 2119/2124 30010KT 6000 SHRA SCT020 BKN035
Issued Valid From Valid To
Jun-21 @ 05:15 UTC
(5 hours ago)
Jun-21 @ 06:00 UTC
(4 hours ago)
Jun-22 @ 06:00 UTC
(in 20 hours)
Expired Click to View Jun-21 @ 06:00 to Jun-21 @ 07:00
TAF LOWS 210515Z 2106/2206 15005KT CAVOK TX28/2113Z TN12/2204Z
Wind Visibility Clouds
150° at 5 knots 10,000+ meters
  • No significant clouds
Becoming Jun-21 @ 07:00 to Jun-22 @ 06:00
BECMG 2107/2109 34007KT 9999 FEW060 SCT120
Wind Visibility Clouds
340° at 7 knots 10,000+ meters
  • Few at 6,000' AGL
  • Scattered at 12,000' AGL
Temporary Jun-21 @ 11:00 to Jun-21 @ 19:00
TEMPO 2111/2119 29013G25KT FEW050CB BKN300
Wind Clouds
290° at 13 knots
 Gusting to 25 knots
  • Few at 5,000' AGL
  • Broken at 30,000' AGL
Temporary  (Probability 40%) Jun-21 @ 14:00 to Jun-21 @ 19:00
PROB40 TEMPO 2114/2119 29020G35KT 4000 TSRA SCT030CB BKN040
Wind Visibility Clouds Conditions
290° at 20 knots
 Gusting to 35 knots
4,007 meters
  • Scattered at 3,000' AGL
  • Broken at 4,000' AGL
  • Thunderstorm
  • Rain
Temporary Jun-21 @ 19:00 to Jun-22 @ 00:00
TEMPO 2119/2124 30010KT 6000 SHRA SCT020 BKN035
Wind Visibility Clouds Conditions
300° at 10 knots 6,003 meters
  • Scattered at 2,000' AGL
  • Broken at 3,500' AGL
  • Rain
TAF LOWS 210515Z 2106/2206 15005KT CAVOK TX28/2113Z TN12/2204Z BECMG 2107/2109 34007KT 9999 FEW060 SCT120 TEMPO 2111/2119 29013G25KT FEW050CB BKN300 PROB40 TEMPO 2114/2119 29020G35KT 4000 TSRA SCT030CB BKN040 TEMPO 2119/2124 30010KT 6000 SHRA SCT020 BKN035
Issued Jun-21 @ 05:15 UTC
(5 hours ago)
Valid From Jun-21 @ 06:00 UTC
(4 hours ago)
Valid To Jun-22 @ 06:00 UTC
(in 20 hours)
Jun-21 @ 06:00 - Jun-21 @ 07:00
Wind Visibility
150° at 5 knots 10,000+ meters
Clouds
  • No significant clouds
Becoming Jun-21 @ 07:00 - Jun-22 @ 06:00
Wind Visibility
340° at 7 knots 10,000+ meters
Clouds
  • Few at 6,000' AGL
  • Scattered at 12,000' AGL
Temporary Jun-21 @ 11:00 - Jun-21 @ 19:00
Wind
290° at 13 knots
 Gusting to 25 knots
Clouds
  • Few at 5,000' AGL
  • Broken at 30,000' AGL
Probability 40% Temporary Jun-21 @ 14:00 - Jun-21 @ 19:00
Wind Visibility
290° at 20 knots
 Gusting to 35 knots
4,007 meters
Clouds
  • Scattered at 3,000' AGL
  • Broken at 4,000' AGL
Conditions
  • Thunderstorm
  • Rain
Temporary Jun-21 @ 19:00 - Jun-22 @ 00:00
Wind Visibility
300° at 10 knots 6,003 meters
Clouds
  • Scattered at 2,000' AGL
  • Broken at 3,500' AGL
Conditions
  • Rain